Terminal Aerodrome Forecast
Issued by NWS Grand Forks, ND

Home | Current Version | Previous Version | Text Only | Print | Product List | Glossary Off
Versions: 1 2 3 4 5 6 7 8 9 10 11 12 13 14 15 16 17 18

000
FTUS43 KFGF 081120
TAFFAR
TAF
KFAR 081120Z 0812/0912 32005KT P6SM BKN013
     FM081800 27011KT P6SM OVC025
     FM081900 28012KT P6SM OVC035
     FM082300 32015G23KT P6SM OVC050
     FM090900 34012KT P6SM BKN250=

USA.gov is the U.S. government's official web portal to all federal, state and local government web resources and services.